Ottawa, IL

10:52 AM CDT on May 24, 2015 (GMT -0500)
North Ottawa | | Change Station
CLOSE
Current Station
Personal Weather Station
Location: Ottawa, IL
Elevation: 594 ft
Nearby Weather Stations

Elev 594 ft 41.37 °N, 88.83 °W | Updated 7 minutes ago

Overcast
Overcast
69.8 °F
Feels Like 69.8 °F
N
0.0
Wind Variable Wind from SSE

Today
High -- | Low -- °F
--% Chance of Precip.
Yesterday
High -- | Low -- °F
Precip. -- in
5:29 AM 8:15 PM
Waxing Crescent, 40% visible
Pressure 30.10 in
Visibility 10.0 miles
Clouds Scattered Clouds 3200 ft
Scattered Clouds 3800 ft
Mostly Cloudy 4600 ft
Dew Point 59 °F
Humidity 69%
Rainfall 0.17 in
Snow Depth Not available.
UV 5 out of 12
Pollen 8.20 out of 12
Air Quality Not available.
Flu Activity Sporadic
METAR KVYS 241535Z AUTO 10006KT 10SM -RA SCT032 SCT038 BKN046 19/15 A3010 RMK AO2 T01900146

More Conditions Fewer Conditions

Pressure 30.10 in
Visibility 10.0 miles
Clouds Scattered Clouds 3200 ft
Scattered Clouds 3800 ft
Mostly Cloudy 4600 ft
Dew Point 59 °F
Humidity 69%
Rainfall 0.17 in
Snow Depth Not available.
UV 5 out of 12
Pollen 8.20 out of 12
Air Quality Not available.
Flu Activity Sporadic
METAR KVYS 241535Z AUTO 10006KT 10SM -RA SCT032 SCT038 BKN046 19/15 A3010 RMK AO2 T01900146

More Conditions Fewer Conditions

10-Day Weather Forecast

Almanac

Astronomy

May. 24, 2015 Rise Set
Actual Time
Civil Twilight
Nautical Twilight
Astronomical Twilight
Moon
Length of Visible Light
Length of Day
Tomorrow will be .
, % of the Moon is Illuminated

Today's Extremes

State Highs State Lows

Community

WunderPhotos

Upload Photos

1,823,779 photos uploaded!

WunderBlogs® & News

Nearby

Air Quality

  Air Quality AQ Index Pollutant
Not available.

Snow Depth

Station Depth Elevation

Earthquake Activity

City Distance Mag. Time & Date
Minimum magnitude displayed is 2.5.

Coastal Water Temperatures

Place Temperature

Stations

Nearby Weather Stations

Station Location Temp. Windchill Dew Point Humidity Wind Precip. Elev Updated Type